Time;durP1;ratioP1;P1;durP2;ratioP2;P2;SDS_P1;SDS_P2;PMS_P1;PMS_P2;Temp;Humidity;BMP_temperature;BMP_pressure;BME280_temperature;BME280_humidity;BME280_pressure;Samples;Min_cycle;Max_cycle;Signal;HPM_P1;HPM_P2
2023/06/12 00:01:24;;;;;;;23.05;15.35;;;;;;;19.71;100.00;100904.72;5072261;28;20044;-62
2023/06/12 00:03:51;;;;;;;18.60;14.73;;;;;;;19.76;100.00;100907.22;5071415;28;20500;-61
2023/06/12 00:06:18;;;;;;;20.20;14.15;;;;;;;20.03;100.00;100897.75;5072569;28;20045;-63
2023/06/12 00:08:46;;;;;;;19.67;14.77;;;;;;;20.03;100.00;100904.13;5072259;28;20060;-63
2023/06/12 00:11:13;;;;;;;20.80;14.88;;;;;;;19.86;100.00;100899.03;5072597;28;20051;-61
2023/06/12 00:13:43;;;;;;;21.70;15.45;;;;;;;19.83;100.00;100896.97;5073047;28;20057;-62
2023/06/12 00:16:10;;;;;;;18.13;15.00;;;;;;;19.60;100.00;100898.91;5072135;28;20052;-62
2023/06/12 00:18:39;;;;;;;19.52;15.10;;;;;;;19.79;100.00;100890.50;5056986;28;20357;-62
2023/06/12 00:21:10;;;;;;;21.95;14.88;;;;;;;19.68;100.00;100903.47;5058490;28;20049;-61
2023/06/12 00:23:39;;;;;;;20.05;15.65;;;;;;;19.68;100.00;100891.50;5058901;28;20063;-61
2023/06/12 00:26:08;;;;;;;17.67;14.57;;;;;;;19.75;100.00;100892.41;5058883;28;20053;-61
2023/06/12 00:28:39;;;;;;;20.40;15.23;;;;;;;19.74;100.00;100896.41;5058957;28;20045;-61
2023/06/12 00:31:06;;;;;;;23.05;13.63;;;;;;;20.06;100.00;100889.41;5061267;28;20049;-62
2023/06/12 00:33:34;;;;;;;18.85;15.18;;;;;;;19.97;100.00;100882.44;5073034;28;20056;-62
2023/06/12 00:36:02;;;;;;;19.15;14.02;;;;;;;20.09;100.00;100880.28;5058983;28;20565;-63
2023/06/12 00:38:30;;;;;;;20.50;14.20;;;;;;;19.52;100.00;100880.41;5057559;28;20057;-62
2023/06/12 00:40:57;;;;;;;16.08;14.20;;;;;;;19.51;100.00;100883.59;5059275;28;20053;-61
2023/06/12 00:43:24;;;;;;;18.85;14.77;;;;;;;19.41;100.00;100884.97;5058073;28;20068;-61
2023/06/12 00:45:52;;;;;;;20.77;14.90;;;;;;;19.45;100.00;100885.88;5057805;28;20064;-62
2023/06/12 00:48:19;;;;;;;17.70;14.73;;;;;;;19.41;100.00;100887.75;5056445;28;20061;-60
2023/06/12 00:50:47;;;;;;;17.92;14.00;;;;;;;19.73;100.00;100882.81;5063352;28;20116;-60
2023/06/12 00:53:15;;;;;;;20.30;14.88;;;;;;;19.70;100.00;100889.94;5078388;28;20064;-62
2023/06/12 00:55:43;;;;;;;19.75;13.50;;;;;;;19.70;100.00;100880.75;5097866;28;20554;-62
2023/06/12 00:58:11;;;;;;;17.67;13.90;;;;;;;19.50;100.00;100881.94;5086510;28;20048;-61
2023/06/12 01:00:39;;;;;;;17.20;13.77;;;;;;;19.57;100.00;100884.88;5077988;28;20514;-62
2023/06/12 01:03:08;;;;;;;18.25;13.93;;;;;;;19.55;100.00;100885.25;5059924;28;20048;-61
2023/06/12 01:05:43;;;;;;;16.53;14.43;;;;;;;19.56;100.00;100883.28;5078561;28;20044;-62
2023/06/12 01:08:16;;;;;;;16.75;13.40;;;;;;;19.80;100.00;100883.75;5076939;28;20048;-60
2023/06/12 01:10:49;;;;;;;18.05;12.80;;;;;;;19.94;100.00;100881.22;5058643;28;20056;-61
2023/06/12 01:13:17;;;;;;;;;;;;;;;19.81;100.00;100876.16;5077276;28;20060;-62
2023/06/12 01:15:44;;;;;;;17.90;13.70;;;;;;;19.86;100.00;100879.47;5064087;28;19936;-61
2023/06/12 01:18:12;;;;;;;18.27;14.02;;;;;;;19.63;100.00;100861.84;5069010;28;20482;-62
2023/06/12 01:20:40;;;;;;;18.77;14.18;;;;;;;19.55;100.00;100871.28;5076597;28;20052;-63
2023/06/12 01:23:31;;;;;;;17.88;13.68;;;;;;;19.50;100.00;100874.38;5077228;28;20053;-61
2023/06/12 01:26:33;;;;;;;17.77;14.40;;;;;;;19.28;100.00;100877.09;5077415;28;20052;-62
2023/06/12 01:29:01;;;;;;;17.65;14.10;;;;;;;19.47;100.00;100869.53;5054694;28;20049;-62
2023/06/12 01:31:43;;;;;;;19.70;13.93;;;;;;;19.45;100.00;100865.47;5065836;28;20047;-62
2023/06/12 01:34:20;;;;;;;16.50;14.52;;;;;;;19.43;100.00;100868.66;5058300;28;20420;-62
2023/06/12 01:36:53;;;;;;;17.40;14.27;;;;;;;19.39;100.00;100864.16;5057512;28;20059;-62
2023/06/12 01:39:22;;;;;;;22.05;14.73;;;;;;;19.49;100.00;100872.75;5057351;28;20146;-62
2023/06/12 01:41:50;;;;;;;18.33;13.85;;;;;;;19.26;100.00;100857.09;5072808;28;20080;-63
2023/06/12 01:44:20;;;;;;;18.50;14.60;;;;;;;19.29;100.00;100862.75;5075519;28;20067;-62
2023/06/12 01:46:47;;;;;;;;;;;;;;;19.23;100.00;100863.41;5073826;28;20055;-63
2023/06/12 01:49:15;;;;;;;22.55;15.32;;;;;;;19.34;100.00;100858.88;5064562;28;19920;-61
2023/06/12 01:51:44;;;;;;;18.13;15.77;;;;;;;19.41;100.00;100859.00;5063406;28;20064;-62
2023/06/12 01:54:11;;;;;;;20.27;15.45;;;;;;;19.27;100.00;100856.72;5057051;28;20040;-63
2023/06/12 01:56:38;;;;;;;24.38;16.08;;;;;;;19.21;100.00;100861.00;5094011;28;20067;-63
2023/06/12 01:59:06;;;;;;;23.27;16.15;;;;;;;19.11;100.00;100855.97;5086858;28;20048;-62
2023/06/12 02:01:44;;;;;;;21.08;16.58;;;;;;;19.14;100.00;100858.06;5071570;28;20044;-63
2023/06/12 02:04:13;;;;;;;20.55;15.73;;;;;;;19.11;100.00;100869.94;5073351;28;20044;-62
2023/06/12 02:06:40;;;;;;;19.65;15.85;;;;;;;19.18;100.00;100864.50;5073454;28;20443;-62
2023/06/12 02:09:07;;;;;;;22.55;16.60;;;;;;;19.00;100.00;100868.94;5056269;28;20056;-62
2023/06/12 02:11:35;;;;;;;20.52;16.83;;;;;;;19.10;100.00;100865.53;5069431;28;20491;-62
2023/06/12 02:14:02;;;;;;;19.63;16.33;;;;;;;19.15;100.00;100872.81;5053363;28;20060;-61
2023/06/12 02:16:30;;;;;;;21.02;16.50;;;;;;;19.50;100.00;100879.97;5070289;28;20063;-62
2023/06/12 02:18:57;;;;;;;21.20;16.30;;;;;;;19.48;100.00;100876.72;5072978;28;20048;-62
2023/06/12 02:21:25;;;;;;;21.45;15.75;;;;;;;19.35;100.00;100880.06;5074075;28;20059;-62
2023/06/12 02:23:53;;;;;;;22.00;16.00;;;;;;;19.40;100.00;100886.16;5064131;28;20068;-62
2023/06/12 02:26:20;;;;;;;21.27;15.98;;;;;;;19.68;100.00;100885.91;5064112;28;20057;-63
2023/06/12 02:29:06;;;;;;;21.90;15.93;;;;;;;19.62;100.00;100890.97;5060522;28;20048;-62
2023/06/12 02:31:36;;;;;;;22.23;16.30;;;;;;;19.67;100.00;100889.84;5042569;28;20048;-62
2023/06/12 02:34:04;;;;;;;19.45;14.43;;;;;;;19.78;100.00;100885.28;5061783;28;20053;-62
2023/06/12 02:36:33;;;;;;;20.73;15.45;;;;;;;19.94;100.00;100886.00;5053741;28;20045;-63
2023/06/12 02:39:02;;;;;;;19.67;15.75;;;;;;;19.74;100.00;100890.81;5052666;28;20057;-62
2023/06/12 02:41:29;;;;;;;18.55;14.82;;;;;;;19.86;100.00;100895.41;5051535;28;20057;-62
2023/06/12 02:43:57;;;;;;;19.73;15.02;;;;;;;19.45;100.00;100896.22;5063940;28;20063;-62
2023/06/12 02:46:25;;;;;;;20.58;14.38;;;;;;;19.51;100.00;100889.16;5053708;28;20060;-62
2023/06/12 02:48:52;;;;;;;19.73;13.55;;;;;;;19.73;100.00;100897.59;5052461;28;20061;-61
2023/06/12 02:51:20;;;;;;;18.08;13.48;;;;;;;19.61;100.00;100888.56;5033149;28;20057;-62
2023/06/12 02:53:47;;;;;;;17.77;12.90;;;;;;;19.46;100.00;100895.03;5063987;28;20051;-62
2023/06/12 02:56:15;;;;;;;19.38;13.07;;;;;;;19.36;100.00;100882.47;5052805;28;20053;-63
2023/06/12 02:58:44;;;;;;;18.10;13.15;;;;;;;19.46;100.00;100876.28;5071417;28;20044;-63
2023/06/12 03:01:12;;;;;;;18.77;13.73;;;;;;;19.68;99.05;100875.50;5071282;28;20056;-63
2023/06/12 03:03:39;;;;;;;17.38;13.40;;;;;;;19.61;100.00;100875.41;5073450;28;20049;-63
2023/06/12 03:06:08;;;;;;;16.58;13.68;;;;;;;19.84;100.00;100876.22;5055488;28;20049;-63
2023/06/12 03:08:35;;;;;;;20.25;14.68;;;;;;;19.55;100.00;100879.66;5071584;28;20056;-63
2023/06/12 03:11:03;;;;;;;21.05;15.02;;;;;;;19.41;100.00;100870.19;5070791;28;20056;-63
2023/06/12 03:13:31;;;;;;;19.92;15.57;;;;;;;19.11;100.00;100869.94;5073236;28;20053;-62
2023/06/12 03:15:59;;;;;;;19.92;15.20;;;;;;;19.01;100.00;100874.13;5055075;28;20053;-62
2023/06/12 03:18:27;;;;;;;19.17;15.05;;;;;;;19.21;100.00;100871.34;5052141;28;20053;-62
2023/06/12 03:20:54;;;;;;;17.05;14.13;;;;;;;19.10;100.00;100885.09;5056407;28;20064;-62
2023/06/12 03:23:21;;;;;;;24.05;14.38;;;;;;;19.21;100.00;100876.94;5035579;28;20053;-62
2023/06/12 03:25:49;;;;;;;20.38;15.05;;;;;;;18.92;100.00;100892.25;5053316;28;20048;-62
2023/06/12 03:28:16;;;;;;;17.55;15.25;;;;;;;18.81;100.00;100891.22;5052739;28;20045;-62
2023/06/12 03:30:44;;;;;;;20.55;15.10;;;;;;;18.66;100.00;100892.88;5072016;28;20048;-62
2023/06/12 03:33:12;;;;;;;22.85;15.48;;;;;;;18.58;100.00;100884.72;5071439;28;20048;-62
2023/06/12 03:35:41;;;;;;;19.03;14.93;;;;;;;18.57;100.00;100894.22;5071859;28;20048;-63
2023/06/12 03:38:09;;;;;;;22.58;15.65;;;;;;;18.37;100.00;100893.34;5055255;28;20291;-62
2023/06/12 03:40:36;;;;;;;22.73;15.70;;;;;;;18.40;100.00;100887.06;5054960;28;20056;-62
2023/06/12 03:43:04;;;;;;;20.95;14.93;;;;;;;18.76;100.00;100881.16;5054603;28;20052;-62
2023/06/12 03:45:31;;;;;;;20.55;14.77;;;;;;;18.96;100.00;100885.59;5072441;28;20049;-62
2023/06/12 03:48:00;;;;;;;17.90;14.40;;;;;;;19.01;100.00;100892.88;5071481;28;20056;-62
2023/06/12 03:50:29;;;;;;;21.27;14.15;;;;;;;18.82;100.00;100899.25;5068918;28;20052;-62
2023/06/12 03:52:56;;;;;;;17.88;14.52;;;;;;;18.66;100.00;100895.66;5051381;28;20052;-62
2023/06/12 03:55:24;;;;;;;22.23;14.80;;;;;;;18.57;100.00;100897.03;5091344;28;20404;-62
2023/06/12 03:57:52;;;;;;;16.67;13.95;;;;;;;18.58;100.00;100898.66;5093174;28;20047;-66
2023/06/12 04:00:20;;;;;;;23.13;14.82;;;;;;;18.42;100.00;100895.06;5074250;28;20048;-64
2023/06/12 04:02:48;;;;;;;24.53;15.23;;;;;;;18.31;100.00;100894.78;5070709;28;20536;-63
2023/06/12 04:05:20;;;;;;;24.20;15.25;;;;;;;18.53;100.00;100896.94;5054897;28;20048;-62
2023/06/12 04:07:48;;;;;;;22.70;14.75;;;;;;;18.55;100.00;100905.75;5071068;28;20047;-61
2023/06/12 04:10:16;;;;;;;21.38;14.55;;;;;;;18.43;100.00;100902.28;5075415;28;20052;-62
2023/06/12 04:12:43;;;;;;;21.63;14.27;;;;;;;18.37;100.00;100903.69;5092274;28;20052;-62
2023/06/12 04:15:11;;;;;;;18.23;14.10;;;;;;;18.39;100.00;100901.34;5092799;28;20052;-63
2023/06/12 04:17:38;;;;;;;18.02;14.05;;;;;;;18.28;100.00;100900.28;5051644;28;20057;-63
2023/06/12 04:20:07;;;;;;;20.20;14.55;;;;;;;18.22;100.00;100896.16;5050435;28;20056;-63
2023/06/12 04:22:35;;;;;;;20.23;14.43;;;;;;;18.50;100.00;100894.06;5052074;28;20049;-62
2023/06/12 04:25:05;;;;;;;19.90;14.00;;;;;;;18.33;100.00;100884.06;5052468;28;20468;-63
2023/06/12 04:27:33;;;;;;;19.02;13.80;;;;;;;18.48;100.00;100894.44;5051978;28;20412;-63
2023/06/12 04:30:01;;;;;;;17.67;13.07;;;;;;;18.45;100.00;100888.75;5055664;28;20056;-62
2023/06/12 04:32:29;;;;;;;22.10;13.52;;;;;;;18.33;100.00;100891.63;5056803;28;20521;-61
2023/06/12 04:34:57;;;;;;;20.25;13.40;;;;;;;18.36;100.00;100888.13;5049661;28;20055;-61
2023/06/12 04:37:25;;;;;;;18.30;13.32;;;;;;;18.44;100.00;100887.16;5051964;28;20377;-62
2023/06/12 04:39:55;;;;;;;18.63;13.25;;;;;;;18.40;100.00;100884.28;5051423;28;20517;-64
2023/06/12 04:42:24;;;;;;;17.70;13.30;;;;;;;18.49;100.00;100889.66;5056208;28;20055;-63
2023/06/12 04:44:51;;;;;;;16.55;12.60;;;;;;;18.34;100.00;100901.63;5051373;28;20048;-63
2023/06/12 04:47:20;;;;;;;15.40;12.85;;;;;;;18.47;100.00;100892.00;5044042;28;20045;-63
2023/06/12 04:49:57;;;;;;;22.45;13.07;;;;;;;18.41;100.00;100899.03;5055854;28;20045;-62
2023/06/12 04:52:24;;;;;;;16.23;13.13;;;;;;;18.27;100.00;100896.66;5051846;28;20053;-63
2023/06/12 04:54:52;;;;;;;20.02;13.25;;;;;;;18.18;100.00;100895.25;5081837;28;20051;-62
2023/06/12 04:57:19;;;;;;;18.17;12.25;;;;;;;18.59;100.00;100901.09;5091022;28;20475;-62
2023/06/12 04:59:48;;;;;;;15.15;11.63;;;;;;;18.38;100.00;100897.75;5076120;28;20047;-62
2023/06/12 05:02:16;;;;;;;15.50;12.00;;;;;;;18.32;100.00;100902.00;5067494;28;20052;-62
2023/06/12 05:04:43;;;;;;;19.00;11.75;;;;;;;18.12;100.00;100897.47;5063817;28;20057;-63
2023/06/12 05:07:16;;;;;;;17.05;10.98;;;;;;;18.58;100.00;100895.88;5050819;28;20052;-62
2023/06/12 05:09:47;;;;;;;16.38;11.43;;;;;;;18.56;100.00;100903.78;5059178;28;20527;-62
2023/06/12 05:12:15;;;;;;;17.05;11.98;;;;;;;18.11;100.00;100900.63;5083872;28;20044;-63
2023/06/12 05:14:43;;;;;;;17.40;11.88;;;;;;;18.24;100.00;100904.94;5065949;28;20052;-63
2023/06/12 05:17:11;;;;;;;14.23;10.68;;;;;;;17.97;100.00;100906.66;5074109;28;20056;-62
2023/06/12 05:19:38;;;;;;;14.35;10.80;;;;;;;17.99;100.00;100899.53;5066773;28;20057;-63
2023/06/12 05:22:06;;;;;;;12.48;10.38;;;;;;;17.93;100.00;100898.22;5054174;28;20510;-64
2023/06/12 05:24:35;;;;;;;14.98;11.13;;;;;;;17.78;100.00;100903.75;5053589;28;20061;-63
2023/06/12 05:27:03;;;;;;;22.98;11.52;;;;;;;18.07;100.00;100899.72;5054403;28;20053;-63
2023/06/12 05:29:30;;;;;;;18.38;10.85;;;;;;;18.41;100.00;100899.84;5037993;28;20044;-62
2023/06/12 05:31:58;;;;;;;15.27;11.13;;;;;;;18.64;100.00;100903.59;5063578;28;20523;-62
2023/06/12 05:34:25;;;;;;;16.60;10.95;;;;;;;18.85;100.00;100904.09;5063862;28;20057;-63
2023/06/12 05:36:54;;;;;;;15.48;10.32;;;;;;;18.29;100.00;100899.91;5055521;28;20048;-65
2023/06/12 05:39:24;;;;;;;18.00;11.23;;;;;;;18.05;100.00;100899.28;5065483;28;20063;-62
2023/06/12 05:41:52;;;;;;;12.95;10.00;;;;;;;17.87;100.00;100901.59;5073595;28;20063;-63
2023/06/12 05:44:19;;;;;;;13.38;10.40;;;;;;;17.89;100.00;100899.25;5073204;28;20772;-62
2023/06/12 05:46:50;;;;;;;14.80;10.18;;;;;;;18.07;100.00;100902.50;5055341;28;20524;-62
2023/06/12 05:49:18;;;;;;;11.77;9.43;;;;;;;18.20;100.00;100907.63;5053734;28;20060;-62
2023/06/12 05:51:48;;;;;;;;;;;;;;;18.34;100.00;100910.00;5058733;28;20485;-62
2023/06/12 05:54:16;;;;;;;15.50;9.57;;;;;;;18.36;100.00;100904.88;5074375;28;19920;-62
2023/06/12 05:56:43;;;;;;;12.15;9.15;;;;;;;18.23;100.00;100904.16;5080006;28;20444;-62
2023/06/12 05:59:10;;;;;;;13.27;9.98;;;;;;;18.36;100.00;100902.09;5062067;28;20585;-63
2023/06/12 06:01:39;;;;;;;14.15;9.07;;;;;;;18.73;100.00;100906.19;5073653;28;20047;-62
2023/06/12 06:04:10;;;;;;;16.23;8.95;;;;;;;18.78;100.00;100903.91;5067968;28;20040;-63
2023/06/12 06:06:38;;;;;;;13.15;8.45;;;;;;;18.50;100.00;100914.41;5073646;28;20460;-63
2023/06/12 06:09:09;;;;;;;12.52;8.70;;;;;;;18.39;100.00;100910.53;5072483;28;20072;-63
2023/06/12 06:11:37;;;;;;;11.65;8.65;;;;;;;18.76;100.00;100911.03;5088955;28;20055;-63
2023/06/12 06:14:04;;;;;;;13.63;8.38;;;;;;;18.75;100.00;100910.25;5088752;28;20041;-63
2023/06/12 06:16:33;;;;;;;12.50;7.90;;;;;;;18.37;100.00;100912.06;5073022;28;20071;-63
2023/06/12 06:19:21;;;;;;;15.40;9.07;;;;;;;18.37;100.00;100921.25;5064896;28;20314;-62
2023/06/12 06:21:48;;;;;;;14.80;8.90;;;;;;;18.20;100.00;100916.00;5058038;28;20045;-62
2023/06/12 06:24:16;;;;;;;13.18;8.88;;;;;;;18.40;100.00;100909.38;5061081;28;20083;-63
2023/06/12 06:26:44;;;;;;;15.32;8.55;;;;;;;18.37;100.00;100910.09;5057561;28;20056;-62
2023/06/12 06:29:13;;;;;;;12.27;7.95;;;;;;;18.82;100.00;100921.56;5063663;28;20044;-63
2023/06/12 06:31:42;;;;;;;12.87;7.83;;;;;;;19.05;100.00;100916.09;5060211;28;20143;-62
2023/06/12 06:34:13;;;;;;;14.15;7.85;;;;;;;19.59;97.04;100914.09;5067441;28;20049;-61
2023/06/12 06:36:41;;;;;;;15.60;7.82;;;;;;;19.24;95.85;100915.28;5061335;28;20053;-62
2023/06/12 06:39:09;;;;;;;13.40;7.72;;;;;;;18.75;96.91;100917.78;5062760;28;20044;-62
2023/06/12 06:41:37;;;;;;;16.70;7.75;;;;;;;19.04;96.63;100912.50;5079051;28;20049;-61
2023/06/12 06:44:05;;;;;;;13.88;7.50;;;;;;;18.78;96.48;100919.84;5069146;28;20278;-63
2023/06/12 06:46:33;;;;;;;12.07;7.70;;;;;;;18.48;98.85;100916.75;5065491;28;20054;-62
2023/06/12 06:49:01;;;;;;;13.80;7.63;;;;;;;18.34;100.00;100910.78;5066706;28;20617;-62
2023/06/12 06:51:30;;;;;;;10.63;7.47;;;;;;;18.30;100.00;100920.25;5056030;28;20041;-63
2023/06/12 06:53:58;;;;;;;11.85;7.93;;;;;;;18.36;100.00;100914.03;5058382;28;20045;-63
2023/06/12 06:56:25;;;;;;;11.95;7.03;;;;;;;18.81;99.79;100917.13;5061643;28;20056;-62
2023/06/12 06:58:53;;;;;;;12.32;6.50;;;;;;;19.22;96.12;100906.47;5061141;28;20575;-61
2023/06/12 07:01:22;;;;;;;10.20;6.78;;;;;;;19.59;92.98;100910.47;5054822;28;20531;-61
2023/06/12 07:03:50;;;;;;;11.07;6.53;;;;;;;20.00;89.18;100899.28;5062155;28;20059;-61
2023/06/12 07:06:19;;;;;;;10.45;6.70;;;;;;;19.86;87.42;100915.81;5055855;28;20132;-61
2023/06/12 07:08:47;;;;;;;13.60;7.40;;;;;;;19.17;91.23;100912.34;5027402;28;20052;-62
2023/06/12 07:11:14;;;;;;;16.77;7.97;;;;;;;18.92;94.40;100917.38;5050864;28;20064;-63
2023/06/12 07:13:42;;;;;;;9.90;7.85;;;;;;;18.45;97.58;100913.88;5056412;28;20559;-61
2023/06/12 07:16:10;;;;;;;15.13;7.97;;;;;;;18.34;99.88;100910.78;5059710;28;20047;-62
2023/06/12 07:18:37;;;;;;;16.77;7.55;;;;;;;18.74;99.33;100910.59;5052520;28;20053;-63
2023/06/12 07:21:05;;;;;;;14.02;7.03;;;;;;;19.50;92.51;100909.88;5056243;28;20057;-62
2023/06/12 07:23:32;;;;;;;11.68;6.90;;;;;;;19.95;89.45;100904.38;5052904;28;20049;-63
2023/06/12 07:26:01;;;;;;;11.60;6.97;;;;;;;20.29;87.59;100908.19;5065116;28;20037;-62
2023/06/12 07:28:48;;;;;;;10.80;7.13;;;;;;;20.12;87.33;100910.28;5062856;28;20545;-62
2023/06/12 07:31:15;;;;;;;18.02;7.10;;;;;;;20.36;86.29;100914.72;5053449;28;20557;-62
2023/06/12 07:33:43;;;;;;;20.05;7.78;;;;;;;19.96;86.34;100908.81;5056867;28;20055;-62
2023/06/12 07:36:10;;;;;;;17.23;9.30;;;;;;;19.09;93.15;100915.00;5061826;28;20041;-62
2023/06/12 07:38:39;;;;;;;14.68;8.55;;;;;;;18.68;97.21;100926.00;5059127;28;20044;-62
2023/06/12 07:41:07;;;;;;;17.30;8.75;;;;;;;18.87;97.73;100912.91;5056976;28;20049;-62
2023/06/12 07:43:35;;;;;;;18.25;9.15;;;;;;;19.21;96.86;100914.06;5057444;28;20049;-62
2023/06/12 07:46:02;;;;;;;14.18;7.97;;;;;;;19.94;91.96;100909.19;5060386;28;20095;-62
2023/06/12 07:48:30;;;;;;;16.33;8.57;;;;;;;20.34;88.15;100905.91;5056595;28;20061;-62
2023/06/12 07:50:58;;;;;;;13.93;7.72;;;;;;;20.48;86.99;100913.72;5060905;28;20053;-62
2023/06/12 07:53:26;;;;;;;13.23;8.60;;;;;;;20.53;86.19;100914.22;5056113;28;20040;-62
2023/06/12 07:56:07;;;;;;;13.73;8.13;;;;;;;20.67;85.09;100908.84;5066602;28;20540;-61
2023/06/12 07:58:37;;;;;;;16.35;7.10;;;;;;;20.96;83.90;100907.25;5057070;28;20056;-61
2023/06/12 08:01:07;;;;;;;13.65;7.93;;;;;;;21.18;82.77;100907.19;5056686;28;20049;-61
2023/06/12 08:03:39;;;;;;;13.20;7.93;;;;;;;21.05;82.48;100905.81;5046888;28;20530;-62
2023/06/12 08:06:11;;;;;;;19.05;8.18;;;;;;;20.74;84.15;100899.72;5031411;28;20040;-62
2023/06/12 08:08:49;;;;;;;14.30;8.73;;;;;;;20.83;84.14;100903.88;5055959;28;20041;-64
2023/06/12 08:11:25;;;;;;;15.90;8.13;;;;;;;21.02;82.80;100911.38;5049339;28;20040;-62
2023/06/12 08:13:57;;;;;;;20.25;8.82;;;;;;;21.21;81.70;100903.66;5037004;28;20044;-63
2023/06/12 08:16:36;;;;;;;17.95;8.07;;;;;;;20.89;83.12;100902.34;5042701;28;20047;-62
2023/06/12 08:19:14;;;;;;;18.20;8.85;;;;;;;20.66;84.65;100898.03;5025284;28;20068;-63
2023/06/12 08:21:42;;;;;;;15.35;8.82;;;;;;;20.51;84.49;100904.56;5026136;28;20436;-63
2023/06/12 08:24:16;;;;;;;17.30;9.35;;;;;;;20.37;87.49;100890.34;5033263;28;20492;-65
2023/06/12 08:26:48;;;;;;;13.52;8.85;;;;;;;20.83;84.68;100886.28;5054557;28;20041;-63
2023/06/12 08:29:19;;;;;;;15.10;8.73;;;;;;;20.89;84.65;100885.56;5042671;28;20056;-63
2023/06/12 08:31:48;;;;;;;19.05;8.90;;;;;;;21.24;81.70;100886.06;5052710;28;20060;-61
2023/06/12 08:34:18;;;;;;;16.98;8.68;;;;;;;21.23;80.38;100887.25;5051594;28;20049;-63
2023/06/12 08:36:47;;;;;;;21.85;9.57;;;;;;;20.47;83.94;100879.31;5052434;28;20452;-62
2023/06/12 08:39:27;;;;;;;17.92;10.60;;;;;;;20.12;88.46;100887.91;5036397;28;20048;-63
2023/06/12 08:42:09;;;;;;;18.58;9.07;;;;;;;20.75;85.11;100884.53;5031760;28;20045;-62
2023/06/12 08:44:43;;;;;;;21.05;8.07;;;;;;;21.23;82.13;100880.84;5059249;28;20053;-63
2023/06/12 08:47:15;;;;;;;17.88;9.73;;;;;;;21.33;80.95;100868.97;5056520;28;20057;-62
2023/06/12 08:49:46;;;;;;;18.25;8.95;;;;;;;21.68;79.50;100874.97;5056751;28;20574;-62
2023/06/12 08:52:24;;;;;;;17.50;9.35;;;;;;;21.36;81.15;100873.00;5057082;28;20064;-63
2023/06/12 08:54:58;;;;;;;17.65;8.85;;;;;;;21.63;79.47;100868.91;5058922;28;20057;-62
2023/06/12 08:57:30;;;;;;;17.05;8.52;;;;;;;21.65;79.36;100872.13;5039404;28;20049;-64
2023/06/12 08:59:57;;;;;;;17.73;9.25;;;;;;;21.75;77.92;100875.06;5058920;28;20123;-62
2023/06/12 09:02:30;;;;;;;15.20;10.55;;;;;;;21.57;78.63;100881.63;5049554;28;20056;-62
2023/06/12 09:05:07;;;;;;;17.85;10.00;;;;;;;21.76;78.49;100875.88;5053965;28;20669;-62
2023/06/12 09:07:50;;;;;;;13.85;9.00;;;;;;;22.16;77.14;100864.63;5075359;28;20056;-63
2023/06/12 09:10:24;;;;;;;;;;;;;;;21.77;77.74;100860.63;5046486;28;20053;-62
2023/06/12 09:13:02;;;;;;;16.98;8.55;;;;;;;22.07;77.31;100858.56;5046171;28;19933;-63
2023/06/12 09:15:33;;;;;;;14.25;9.15;;;;;;;22.21;75.74;100865.09;5037156;28;20049;-62
2023/06/12 09:18:13;;;;;;;17.63;9.85;;;;;;;21.97;77.20;100857.25;5057849;28;20064;-62
2023/06/12 09:20:44;;;;;;;16.40;10.55;;;;;;;21.66;77.84;100862.50;5049137;28;20565;-62
2023/06/12 09:23:18;;;;;;;18.02;10.60;;;;;;;20.87;83.06;100865.53;5061271;28;20045;-63
2023/06/12 09:25:45;;;;;;;19.55;11.45;;;;;;;20.69;83.62;100866.47;5057384;28;20036;-62
2023/06/12 09:28:36;;;;;;;14.73;10.40;;;;;;;20.68;85.19;100864.84;5044860;28;20068;-63
2023/06/12 09:31:08;;;;;;;14.98;10.65;;;;;;;20.91;84.55;100857.16;5056239;28;20036;-61
2023/06/12 09:33:40;;;;;;;15.32;9.75;;;;;;;21.56;81.30;100857.59;5059819;28;20055;-62
2023/06/12 09:36:15;;;;;;;18.10;11.13;;;;;;;21.92;78.59;100860.41;5045295;28;20500;-62
2023/06/12 09:38:43;;;;;;;26.05;11.73;;;;;;;21.48;79.91;100856.72;5057469;28;20065;-63
2023/06/12 09:41:11;;;;;;;21.70;11.30;;;;;;;21.45;80.46;100863.09;5064121;28;20040;-64
2023/06/12 09:43:41;;;;;;;17.65;10.65;;;;;;;21.70;79.62;100852.97;5048830;28;20048;-62
2023/06/12 09:46:08;;;;;;;18.10;11.07;;;;;;;22.04;78.21;100853.69;5055166;28;20052;-63
2023/06/12 09:48:37;;;;;;;16.88;11.38;;;;;;;22.29;75.64;100863.16;5056300;28;20049;-62
2023/06/12 09:51:23;;;;;;;16.70;10.90;;;;;;;22.44;75.38;100864.06;5062416;28;20775;-62
2023/06/12 09:53:51;;;;;;;18.98;12.02;;;;;;;21.92;77.38;100865.22;5045211;28;20045;-61
2023/06/12 09:56:18;;;;;;;17.45;11.43;;;;;;;22.06;76.94;100873.75;5037119;28;20056;-63
2023/06/12 09:58:47;;;;;;;20.40;11.55;;;;;;;22.17;76.73;100869.88;5055841;28;20423;-62
2023/06/12 10:01:17;;;;;;;19.15;11.38;;;;;;;22.72;74.67;100865.09;5057754;28;20694;-62
2023/06/12 10:03:47;;;;;;;16.23;11.77;;;;;;;22.41;74.20;100868.44;5057821;28;20638;-61
2023/06/12 10:06:17;;;;;;;28.27;13.07;;;;;;;22.17;75.48;100866.25;5055371;28;20065;-62
2023/06/12 10:08:45;;;;;;;14.47;11.20;;;;;;;22.63;75.26;100856.19;5061281;28;20078;-63
2023/06/12 10:11:12;;;;;;;16.00;12.18;;;;;;;22.73;73.50;100861.09;5054433;28;20048;-63
2023/06/12 10:13:40;;;;;;;15.95;13.02;;;;;;;22.55;74.16;100867.78;5056328;28;20064;-64
2023/06/12 10:16:08;;;;;;;17.10;12.68;;;;;;;22.44;74.22;100866.88;5055488;28;20068;-64
2023/06/12 10:18:35;;;;;;;19.25;13.02;;;;;;;22.40;74.55;100868.84;5055026;28;20041;-63
2023/06/12 10:21:02;;;;;;;17.98;13.57;;;;;;;22.24;75.06;100861.53;5061831;28;20063;-62
2023/06/12 10:23:30;;;;;;;21.02;13.70;;;;;;;22.24;75.47;100864.31;5059716;28;20048;-62
2023/06/12 10:26:02;;;;;;;28.88;12.90;;;;;;;22.57;74.99;100863.41;5054158;28;20049;-64
2023/06/12 10:28:29;;;;;;;17.48;11.90;;;;;;;23.02;73.41;100862.88;5052024;28;20083;-64
2023/06/12 10:31:16;;;;;;;18.02;13.32;;;;;;;23.36;70.97;100860.63;5057376;28;20049;-63
2023/06/12 10:34:01;;;;;;;18.95;14.25;;;;;;;23.15;70.70;100863.31;5054458;28;20059;-62
2023/06/12 10:36:39;;;;;;;20.35;14.60;;;;;;;23.40;70.18;100847.38;5028056;28;20053;-62
2023/06/12 10:39:22;;;;;;;18.48;14.30;;;;;;;23.04;71.18;100859.66;5054382;28;20508;-63
2023/06/12 10:41:57;;;;;;;18.75;13.82;;;;;;;23.05;72.32;100852.81;5072404;28;20499;-63
2023/06/12 10:44:38;;;;;;;22.63;15.82;;;;;;;22.97;71.16;100862.44;5053584;28;20072;-65
2023/06/12 10:47:21;;;;;;;22.15;17.10;;;;;;;22.79;72.21;100859.50;5053577;28;20041;-63
2023/06/12 10:50:00;;;;;;;23.13;15.85;;;;;;;22.73;72.52;100852.69;5060598;28;20079;-62
2023/06/12 10:52:28;;;;;;;22.02;16.15;;;;;;;22.71;72.57;100857.88;5065384;28;20540;-63
2023/06/12 10:55:18;;;;;;;24.95;17.52;;;;;;;22.76;71.83;100860.31;5056456;28;20044;-63
2023/06/12 10:57:56;;;;;;;24.83;17.52;;;;;;;22.63;72.91;100858.22;5056276;28;20048;-63
2023/06/12 11:00:28;;;;;;;26.17;17.15;;;;;;;22.59;73.33;100852.59;5054178;28;20044;-64
2023/06/12 11:03:02;;;;;;;20.27;16.63;;;;;;;22.37;74.14;100844.38;5058646;28;20049;-62
2023/06/12 11:05:30;;;;;;;22.65;16.55;;;;;;;22.46;74.04;100856.03;5055429;28;20052;-64
2023/06/12 11:08:03;;;;;;;26.33;18.75;;;;;;;22.50;74.35;100852.09;5055940;28;20045;-62
2023/06/12 11:10:32;;;;;;;22.60;18.00;;;;;;;22.29;75.28;100852.75;5053788;28;20405;-62
2023/06/12 11:12:59;;;;;;;30.85;27.05;;;;;;;22.51;75.12;100850.09;5057100;28;20404;-64
2023/06/12 11:15:27;;;;;;;33.55;23.17;;;;;;;22.57;74.63;100854.16;5056485;28;20049;-63
2023/06/12 11:17:55;;;;;;;25.35;19.52;;;;;;;22.81;73.97;100857.13;5055016;28;20044;-62
2023/06/12 11:20:23;;;;;;;20.13;17.55;;;;;;;22.75;73.69;100857.91;5057238;28;20079;-62
2023/06/12 11:23:03;;;;;;;22.95;17.00;;;;;;;22.59;74.05;100861.00;5074962;28;20048;-62